Time;durP1;ratioP1;P1;durP2;ratioP2;P2;SDS_P1;SDS_P2;PMS_P1;PMS_P2;Temp;Humidity;BMP_temperature;BMP_pressure;BME280_temperature;BME280_humidity;BME280_pressure;Samples;Min_cycle;Max_cycle;Signal;HPM_P1;HPM_P2
2023/05/14 00:00:08;;;;;;;12.43;11.33;;;;;;;12.16;100.00;102125.66;5031005;28;20463;-40
2023/05/14 00:02:37;;;;;;;12.73;11.43;;;;;;;12.13;100.00;102124.19;5033536;28;20431;-42
2023/05/14 00:05:05;;;;;;;15.20;11.50;;;;;;;12.10;100.00;102126.34;5032045;28;20436;-43
2023/05/14 00:07:33;;;;;;;13.43;12.13;;;;;;;12.03;100.00;102118.22;5032986;28;20455;-42
2023/05/14 00:10:01;;;;;;;12.63;11.23;;;;;;;12.01;100.00;102122.88;5032349;28;20460;-42
2023/05/14 00:12:29;;;;;;;14.63;12.27;;;;;;;11.99;100.00;102121.41;5031435;28;20436;-42
2023/05/14 00:14:56;;;;;;;12.10;11.10;;;;;;;11.95;100.00;102118.22;5030219;28;20432;-42
2023/05/14 00:17:24;;;;;;;14.63;13.23;;;;;;;11.89;100.00;102118.91;5031496;28;20476;-45
2023/05/14 00:19:53;;;;;;;12.43;11.33;;;;;;;11.88;100.00;102113.75;5030209;28;20464;-43
2023/05/14 00:22:21;;;;;;;14.43;13.00;;;;;;;11.84;100.00;102107.91;5030207;28;20476;-45
2023/05/14 00:24:48;;;;;;;14.50;13.30;;;;;;;11.82;100.00;102104.59;5031173;28;20546;-48
2023/05/14 00:27:16;;;;;;;13.13;11.90;;;;;;;11.81;100.00;102105.56;5027757;28;20456;-44
2023/05/14 00:29:44;;;;;;;14.13;12.60;;;;;;;11.79;100.00;102109.44;5030764;28;21071;-42
2023/05/14 00:32:12;;;;;;;13.30;12.20;;;;;;;11.77;100.00;102104.25;5031070;28;20456;-42
2023/05/14 00:34:39;;;;;;;14.27;12.20;;;;;;;11.76;100.00;102094.56;5029828;28;20428;-40
2023/05/14 00:37:08;;;;;;;13.07;11.97;;;;;;;11.75;100.00;102095.56;5030170;28;20452;-40
2023/05/14 00:39:36;;;;;;;13.17;12.00;;;;;;;11.74;100.00;102101.09;5029943;28;20470;-42
2023/05/14 00:42:04;;;;;;;14.80;13.40;;;;;;;11.75;100.00;102092.06;5030037;28;20467;-44
2023/05/14 00:44:33;;;;;;;13.60;12.40;;;;;;;11.72;100.00;102092.41;5030084;28;20436;-42
2023/05/14 00:47:00;;;;;;;14.60;13.30;;;;;;;11.73;100.00;102094.09;5029796;28;20463;-42
2023/05/14 00:49:29;;;;;;;14.53;13.20;;;;;;;11.72;100.00;102098.59;5030669;28;20471;-41
2023/05/14 00:51:59;;;;;;;14.13;12.90;;;;;;;11.70;100.00;102094.41;5034141;28;20440;-42
2023/05/14 00:54:30;;;;;;;13.50;12.30;;;;;;;11.68;100.00;102087.38;5029133;28;20435;-44
2023/05/14 00:56:59;;;;;;;13.00;11.97;;;;;;;11.68;100.00;102092.72;5034363;28;20526;-42
2023/05/14 00:59:27;;;;;;;13.50;12.30;;;;;;;11.66;100.00;102083.22;5035950;28;20538;-42
2023/05/14 01:01:55;;;;;;;16.27;14.87;;;;;;;11.63;100.00;102084.38;5033654;28;20452;-41
2023/05/14 01:04:22;;;;;;;13.40;12.30;;;;;;;11.63;100.00;102084.38;5040050;28;20435;-42
2023/05/14 01:07:03;;;;;;;17.20;14.57;;;;;;;11.63;100.00;102080.88;5032153;28;20480;-44
2023/05/14 01:09:40;;;;;;;14.83;13.53;;;;;;;11.55;100.00;102084.41;5036882;28;20455;-41
2023/05/14 01:12:16;;;;;;;15.47;14.03;;;;;;;11.51;100.00;102085.75;5035845;28;20444;-41
2023/05/14 01:14:53;;;;;;;15.40;13.77;;;;;;;11.46;100.00;102085.44;5029736;28;20452;-39
2023/05/14 01:17:22;;;;;;;16.57;14.67;;;;;;;11.43;100.00;102083.09;5031847;28;20517;-42
2023/05/14 01:19:51;;;;;;;17.13;15.77;;;;;;;11.42;100.00;102076.06;5035542;28;20464;-39
2023/05/14 01:22:20;;;;;;;14.83;13.57;;;;;;;11.42;100.00;102080.59;5038695;28;20929;-40
2023/05/14 01:24:48;;;;;;;16.07;14.50;;;;;;;11.41;100.00;102081.59;5036486;28;20948;-42
2023/05/14 01:27:22;;;;;;;15.73;13.60;;;;;;;11.41;100.00;102078.94;5029549;28;20478;-40
2023/05/14 01:29:54;;;;;;;17.47;15.60;;;;;;;11.38;100.00;102071.25;5035305;28;20482;-43
2023/05/14 01:32:23;;;;;;;15.27;14.00;;;;;;;11.36;100.00;102075.91;5036092;28;20447;-42
2023/05/14 01:34:52;;;;;;;15.37;14.03;;;;;;;11.33;100.00;102074.41;5033593;28;20512;-42
2023/05/14 01:37:22;;;;;;;18.70;15.70;;;;;;;11.30;100.00;102072.09;5037856;28;20550;-48
2023/05/14 01:39:51;;;;;;;18.80;16.90;;;;;;;11.28;100.00;102065.25;5040322;28;20467;-39
2023/05/14 01:42:19;;;;;;;16.93;15.40;;;;;;;11.25;100.00;102069.09;5040993;28;20803;-41
2023/05/14 01:44:47;;;;;;;18.40;16.70;;;;;;;11.24;100.00;102058.56;5028703;28;20946;-43
2023/05/14 01:47:14;;;;;;;17.00;15.30;;;;;;;11.22;100.00;102069.44;5034431;28;20478;-43
2023/05/14 01:49:42;;;;;;;17.30;15.60;;;;;;;11.19;100.00;102072.44;5031991;28;20475;-45
2023/05/14 01:52:10;;;;;;;19.80;17.80;;;;;;;11.19;100.00;102067.09;5037242;28;20814;-40
2023/05/14 01:54:39;;;;;;;17.80;16.07;;;;;;;11.18;100.00;102067.25;5035356;28;20880;-42
2023/05/14 01:57:07;;;;;;;20.23;17.63;;;;;;;11.18;100.00;102064.59;5030359;28;20475;-42
2023/05/14 01:59:35;;;;;;;20.93;18.93;;;;;;;11.20;100.00;102059.94;5037779;28;20459;-44
2023/05/14 02:02:02;;;;;;;19.50;17.50;;;;;;;11.18;100.00;102054.75;5034096;28;20443;-42
2023/05/14 02:04:30;;;;;;;19.47;17.57;;;;;;;11.19;100.00;102056.44;5039046;28;20447;-42
2023/05/14 02:06:58;;;;;;;21.17;18.03;;;;;;;11.19;100.00;102058.25;5040525;28;20490;-43
2023/05/14 02:09:25;;;;;;;19.57;17.60;;;;;;;11.19;100.00;102053.75;5035090;28;20570;-43
2023/05/14 02:11:54;;;;;;;20.47;18.47;;;;;;;11.20;100.00;102054.59;5030735;28;20458;-42
2023/05/14 02:14:22;;;;;;;19.37;17.67;;;;;;;11.18;100.00;102052.06;5033028;28;20470;-43
2023/05/14 02:16:50;;;;;;;20.60;18.67;;;;;;;11.19;100.00;102053.75;5028415;28;20480;-45
2023/05/14 02:19:18;;;;;;;20.53;18.73;;;;;;;11.20;100.00;102054.59;5028974;28;20472;-42
2023/05/14 02:21:46;;;;;;;19.50;17.63;;;;;;;11.20;100.00;102051.91;5027257;28;20456;-42
2023/05/14 02:24:14;;;;;;;19.90;18.07;;;;;;;11.21;100.00;102048.22;5032657;28;20458;-40
2023/05/14 02:26:42;;;;;;;22.20;20.40;;;;;;;11.22;100.00;102050.75;5035571;28;21008;-43
2023/05/14 02:29:11;;;;;;;21.03;18.20;;;;;;;11.24;100.00;102039.88;5030949;28;20860;-39
2023/05/14 02:31:39;;;;;;;22.27;20.03;;;;;;;11.24;100.00;102048.72;5027696;28;20432;-41
2023/05/14 02:34:07;;;;;;;21.33;18.93;;;;;;;11.27;100.00;102047.56;5029989;28;20802;-42
2023/05/14 02:36:34;;;;;;;19.77;17.87;;;;;;;11.28;100.00;102057.25;5027703;28;20985;-39
2023/05/14 02:39:03;;;;;;;20.80;18.97;;;;;;;11.29;100.00;102041.03;5029207;28;20476;-41
2023/05/14 02:41:31;;;;;;;21.63;19.33;;;;;;;11.26;100.00;102046.72;5029588;28;20427;-40
2023/05/14 02:43:59;;;;;;;23.00;20.67;;;;;;;11.26;100.00;102048.56;5029265;28;20523;-39
2023/05/14 02:46:28;;;;;;;21.20;19.40;;;;;;;11.24;100.00;102050.56;5028915;28;20420;-39
2023/05/14 02:48:56;;;;;;;22.63;20.40;;;;;;;11.20;100.00;102049.25;5027714;28;20431;-40
2023/05/14 02:51:25;;;;;;;24.83;21.33;;;;;;;11.13;100.00;102043.75;5030050;28;20918;-39
2023/05/14 02:53:53;;;;;;;21.93;19.93;;;;;;;11.16;100.00;102056.75;5028678;28;20432;-39
2023/05/14 02:56:21;;;;;;;22.80;20.60;;;;;;;11.08;100.00;102046.91;5028354;28;20889;-38
2023/05/14 02:58:49;;;;;;;24.10;21.80;;;;;;;11.14;100.00;102041.91;5028065;28;20472;-39
2023/05/14 03:01:18;;;;;;;24.53;22.10;;;;;;;11.15;100.00;102038.22;5025254;28;21042;-39
2023/05/14 03:03:49;;;;;;;23.50;21.50;;;;;;;11.18;100.00;102043.22;5027684;28;20424;-39
2023/05/14 03:06:16;;;;;;;24.37;21.80;;;;;;;11.19;100.00;102039.56;5028771;28;20430;-41
2023/05/14 03:08:44;;;;;;;24.67;22.50;;;;;;;11.18;100.00;102044.06;5029057;28;20451;-39
2023/05/14 03:11:12;;;;;;;23.63;21.50;;;;;;;11.16;100.00;102040.75;5028230;28;21011;-42
2023/05/14 03:13:40;;;;;;;25.80;23.30;;;;;;;11.16;100.00;102042.56;5029059;28;20436;-40
2023/05/14 03:16:08;;;;;;;24.47;22.03;;;;;;;11.15;100.00;102047.06;5028448;28;20416;-40
2023/05/14 03:18:36;;;;;;;23.67;21.37;;;;;;;11.16;100.00;102043.41;5030306;28;20452;-40
2023/05/14 03:21:07;;;;;;;23.17;21.10;;;;;;;11.17;100.00;102038.91;5031333;28;20531;-42
2023/05/14 03:23:35;;;;;;;24.07;21.90;;;;;;;11.19;100.00;102039.56;5032507;28;20960;-42
2023/05/14 03:26:03;;;;;;;21.20;19.30;;;;;;;11.19;100.00;102043.06;5032641;28;20798;-43
2023/05/14 03:28:31;;;;;;;24.07;21.63;;;;;;;11.21;100.00;102030.38;5031804;28;20448;-39
2023/05/14 03:30:59;;;;;;;25.23;21.93;;;;;;;11.25;100.00;102038.88;5033446;28;20456;-39
2023/05/14 03:33:28;;;;;;;24.70;22.60;;;;;;;11.28;100.00;102026.03;5031318;28;20428;-39
2023/05/14 03:35:56;;;;;;;22.60;20.30;;;;;;;11.34;100.00;102029.88;5031846;28;20436;-42
2023/05/14 03:38:25;;;;;;;24.40;21.40;;;;;;;11.36;100.00;102026.00;5032474;28;20474;-42
2023/05/14 03:40:54;;;;;;;23.97;21.43;;;;;;;11.39;100.00;102028.34;5030869;28;20462;-42
2023/05/14 03:43:22;;;;;;;24.63;22.10;;;;;;;11.38;100.00;102024.00;5031530;28;20424;-40
2023/05/14 03:45:51;;;;;;;23.00;20.90;;;;;;;11.43;100.00;102027.00;5032081;28;20905;-41
2023/05/14 03:48:21;;;;;;;22.60;20.43;;;;;;;11.48;100.00;102026.47;5031658;28;21047;-42
2023/05/14 03:50:50;;;;;;;24.73;22.23;;;;;;;11.54;100.00;102025.78;5030677;28;20540;-40
2023/05/14 03:53:18;;;;;;;27.77;21.70;;;;;;;11.59;100.00;102024.28;5031201;28;20420;-39
2023/05/14 03:55:47;;;;;;;23.87;21.67;;;;;;;11.62;100.00;102031.94;5033437;28;20839;-39
2023/05/14 03:58:16;;;;;;;25.77;22.80;;;;;;;11.64;100.00;102024.59;5032259;28;20440;-42
2023/05/14 04:00:45;;;;;;;26.00;23.40;;;;;;;11.73;100.00;102028.13;5029970;28;21024;-40
2023/05/14 04:03:13;;;;;;;25.20;21.60;;;;;;;11.82;100.00;102020.88;5031914;28;20428;-39
2023/05/14 04:05:41;;;;;;;32.57;21.40;;;;;;;11.90;100.00;102027.03;5031042;28;20420;-42
2023/05/14 04:08:10;;;;;;;25.57;23.13;;;;;;;12.00;100.00;102021.47;5031486;28;20529;-42
2023/05/14 04:10:38;;;;;;;25.23;22.77;;;;;;;12.12;100.00;102022.75;5030164;28;20468;-40
2023/05/14 04:13:07;;;;;;;25.80;23.43;;;;;;;12.28;100.00;102014.63;5031883;28;21170;-42
2023/05/14 04:15:38;;;;;;;23.47;21.27;;;;;;;12.46;100.00;102022.34;5031551;28;20412;-39
2023/05/14 04:18:06;;;;;;;27.20;23.20;;;;;;;12.61;100.00;102018.75;5030527;28;20506;-42
2023/05/14 04:20:34;;;;;;;27.03;24.43;;;;;;;12.74;100.00;102013.63;5031561;28;20494;-42
2023/05/14 04:23:02;;;;;;;27.87;24.97;;;;;;;12.90;100.00;102012.66;5032532;28;20432;-39
2023/05/14 04:25:30;;;;;;;28.23;25.67;;;;;;;13.06;100.00;102015.19;5031257;28;20528;-41
2023/05/14 04:27:58;;;;;;;26.50;24.00;;;;;;;13.37;100.00;102004.34;5022803;28;20444;-41
2023/05/14 04:30:30;;;;;;;25.30;22.93;;;;;;;14.14;100.00;102018.13;5029737;28;20506;-42
2023/05/14 04:32:57;;;;;;;24.13;21.63;;;;;;;14.90;100.00;102012.94;5030773;28;20424;-41
2023/05/14 04:35:25;;;;;;;27.27;24.83;;;;;;;15.76;100.00;101997.41;5031066;28;20439;-42
2023/05/14 04:37:53;;;;;;;25.30;22.80;;;;;;;16.55;100.00;101993.94;5029926;28;20484;-43
2023/05/14 04:40:22;;;;;;;24.53;22.10;;;;;;;17.02;100.00;101990.19;5029678;28;21003;-41
2023/05/14 04:42:51;;;;;;;23.83;21.63;;;;;;;17.83;100.00;101989.84;5030308;28;20494;-40
2023/05/14 04:45:20;;;;;;;23.50;21.50;;;;;;;18.51;100.00;101990.94;5030749;28;20603;-43
2023/05/14 04:47:50;;;;;;;22.57;20.60;;;;;;;19.27;100.00;101986.94;5031181;28;20452;-40
2023/05/14 04:50:18;;;;;;;23.53;21.20;;;;;;;19.76;100.00;101977.06;5026526;28;21056;-39
2023/05/14 04:52:46;;;;;;;23.23;21.43;;;;;;;20.00;100.00;101976.13;5029825;28;20432;-41
2023/05/14 04:55:16;;;;;;;22.40;20.50;;;;;;;20.65;100.00;101984.34;5032669;28;20424;-42
2023/05/14 04:57:44;;;;;;;22.30;20.50;;;;;;;21.06;98.62;101973.44;5032302;28;20468;-40
2023/05/14 05:00:13;;;;;;;19.80;18.20;;;;;;;21.51;91.94;101982.63;5030642;28;21192;-44
2023/05/14 05:02:41;;;;;;;19.20;17.67;;;;;;;20.92;89.47;101978.28;5029813;28;20420;-42
2023/05/14 05:05:11;;;;;;;21.10;19.00;;;;;;;20.35;89.74;101974.41;5031419;28;20515;-40
2023/05/14 05:07:39;;;;;;;19.40;17.53;;;;;;;19.86;94.64;101985.47;5029980;28;20462;-40
2023/05/14 05:10:08;;;;;;;22.97;20.93;;;;;;;19.19;98.32;101975.59;5029163;28;20927;-41
2023/05/14 05:12:37;;;;;;;23.07;21.03;;;;;;;18.95;100.00;101979.97;5032309;28;20793;-41
2023/05/14 05:15:06;;;;;;;23.37;21.13;;;;;;;18.50;100.00;101986.56;5029650;28;20933;-41
2023/05/14 05:17:34;;;;;;;23.37;21.13;;;;;;;18.69;100.00;101993.72;5030692;28;20451;-41
2023/05/14 05:20:03;;;;;;;22.30;20.27;;;;;;;18.98;100.00;101984.94;5026544;28;20505;-41
2023/05/14 05:22:33;;;;;;;22.77;20.87;;;;;;;20.08;100.00;101992.03;5029606;28;20913;-40
2023/05/14 05:25:04;;;;;;;20.07;18.37;;;;;;;21.16;89.71;101983.72;5031251;28;20782;-42
2023/05/14 05:27:33;;;;;;;21.17;19.47;;;;;;;21.66;82.81;101981.28;5029812;28;20512;-45
2023/05/14 05:30:03;;;;;;;18.20;16.90;;;;;;;21.77;79.39;101983.16;5028732;28;20471;-40
2023/05/14 05:32:32;;;;;;;16.53;15.03;;;;;;;22.52;74.40;101991.94;5029774;28;20448;-43
2023/05/14 05:35:02;;;;;;;16.07;14.87;;;;;;;22.54;77.36;101997.97;5029616;28;20427;-41
2023/05/14 05:37:30;;;;;;;16.97;15.40;;;;;;;21.99;68.96;101998.56;5030189;28;20467;-42
2023/05/14 05:39:59;;;;;;;16.20;14.70;;;;;;;21.55;75.27;101999.25;5029134;28;20463;-43
2023/05/14 05:42:27;;;;;;;15.80;14.20;;;;;;;21.93;80.00;101990.56;5030069;28;20497;-45
2023/05/14 05:44:56;;;;;;;15.90;14.53;;;;;;;22.64;74.49;101987.25;5028878;28;20432;-42
2023/05/14 05:47:24;;;;;;;14.40;13.37;;;;;;;22.67;72.00;101988.72;5029619;28;20514;-40
2023/05/14 05:49:52;;;;;;;15.30;14.00;;;;;;;22.74;65.41;101990.19;5026070;28;20452;-40
2023/05/14 05:52:20;;;;;;;16.40;14.70;;;;;;;22.75;67.63;101985.56;5029675;28;20490;-40
2023/05/14 05:54:49;;;;;;;16.40;15.03;;;;;;;22.22;65.56;101994.13;5029147;28;20442;-41
2023/05/14 05:57:18;;;;;;;14.20;13.20;;;;;;;22.15;67.23;102002.41;5028906;28;20459;-42
2023/05/14 05:59:46;;;;;;;14.23;12.97;;;;;;;22.23;68.89;102002.03;5028279;28;20482;-40
2023/05/14 06:02:14;;;;;;;14.40;13.13;;;;;;;22.11;68.79;101995.81;5029402;28;20573;-40
2023/05/14 06:04:42;;;;;;;14.73;13.53;;;;;;;21.52;71.61;102000.56;5029939;28;20427;-43
2023/05/14 06:07:10;;;;;;;13.67;12.60;;;;;;;21.84;70.92;101994.69;5029647;28;20543;-40
2023/05/14 06:09:39;;;;;;;14.53;13.10;;;;;;;22.31;65.38;101992.66;5028131;28;20506;-42
2023/05/14 06:12:09;;;;;;;15.20;13.80;;;;;;;21.39;69.24;101986.41;5028728;28;20431;-43
2023/05/14 06:14:40;;;;;;;15.30;13.90;;;;;;;21.32;71.91;101991.16;5028912;28;20447;-42
2023/05/14 06:17:08;;;;;;;15.03;13.73;;;;;;;21.65;72.88;101993.22;5029998;28;20509;-41
2023/05/14 06:19:37;;;;;;;13.93;12.73;;;;;;;21.41;72.54;102000.59;5025224;28;20837;-42
2023/05/14 06:22:05;;;;;;;14.50;13.47;;;;;;;21.28;75.28;101995.41;5029783;28;20505;-41
2023/05/14 06:24:33;;;;;;;13.60;12.60;;;;;;;21.11;73.24;102002.59;5028066;28;20478;-40
2023/05/14 06:27:01;;;;;;;14.53;13.33;;;;;;;21.04;73.61;101999.13;5026113;28;20444;-40
2023/05/14 06:29:29;;;;;;;14.77;13.57;;;;;;;20.59;77.96;102002.38;5029156;28;20447;-40
2023/05/14 06:32:02;;;;;;;13.50;12.20;;;;;;;20.47;78.74;102008.81;5029350;28;20458;-42
2023/05/14 06:34:30;;;;;;;13.67;12.53;;;;;;;20.65;81.17;102004.16;5036382;28;20487;-40
2023/05/14 06:37:02;;;;;;;13.60;12.60;;;;;;;20.66;78.99;101999.56;5047952;28;20451;-43
2023/05/14 06:39:30;;;;;;;16.00;12.07;;;;;;;20.84;80.23;102007.63;5038537;28;20456;-41
2023/05/14 06:41:59;;;;;;;15.07;13.77;;;;;;;20.86;78.56;102008.19;5030487;28;20463;-43
2023/05/14 06:44:27;;;;;;;14.43;13.03;;;;;;;21.34;75.44;101997.16;5032134;28;20439;-40
2023/05/14 06:46:55;;;;;;;13.60;12.40;;;;;;;21.84;75.55;102000.97;5042232;28;20516;-43
2023/05/14 06:49:25;;;;;;;15.50;14.00;;;;;;;22.29;74.86;102002.94;5026368;28;20467;-41
2023/05/14 06:51:53;;;;;;;13.10;11.90;;;;;;;22.16;75.80;102001.34;5033417;28;20633;-43
2023/05/14 06:54:21;;;;;;;13.50;12.10;;;;;;;23.13;67.36;101991.91;5035264;28;21152;-41
2023/05/14 06:56:50;;;;;;;13.10;12.20;;;;;;;23.24;65.29;101995.56;5035571;28;20447;-42
2023/05/14 06:59:18;;;;;;;13.37;12.07;;;;;;;23.01;67.54;101991.16;5048388;28;20420;-42
2023/05/14 07:01:47;;;;;;;13.40;12.30;;;;;;;22.34;69.61;102000.34;5036909;28;20475;-42
2023/05/14 07:04:15;;;;;;;12.83;11.60;;;;;;;22.21;69.73;101998.72;5033724;28;20511;-41
2023/05/14 07:06:45;;;;;;;12.30;11.20;;;;;;;21.87;71.66;101999.63;5038215;28;20504;-40
2023/05/14 07:09:12;;;;;;;12.97;11.90;;;;;;;21.69;71.90;101994.38;5037014;28;20427;-42
2023/05/14 07:11:40;;;;;;;12.80;11.60;;;;;;;21.10;76.19;101996.34;5033838;28;20415;-41
2023/05/14 07:14:09;;;;;;;13.27;12.17;;;;;;;21.00;77.82;101993.34;5031774;28;20953;-43
2023/05/14 07:16:39;;;;;;;12.70;11.70;;;;;;;21.04;81.31;101989.13;5045866;28;20446;-40
2023/05/14 07:19:07;;;;;;;12.97;11.87;;;;;;;20.42;84.85;101987.84;5043982;28;20481;-40
2023/05/14 07:21:35;;;;;;;11.17;10.37;;;;;;;20.66;85.47;101989.56;5047652;28;20454;-41
2023/05/14 07:24:05;;;;;;;11.13;10.33;;;;;;;21.38;90.32;101992.91;5034681;28;20424;-43
2023/05/14 07:26:34;;;;;;;11.53;10.63;;;;;;;21.77;79.97;101983.16;5025402;28;20478;-41
2023/05/14 07:29:02;;;;;;;13.77;12.23;;;;;;;21.68;78.07;101985.44;5030819;28;20446;-42
2023/05/14 07:31:30;;;;;;;13.63;11.40;;;;;;;21.23;80.61;101981.72;5040766;28;20820;-40
2023/05/14 07:33:58;;;;;;;13.20;12.07;;;;;;;21.74;79.04;101978.22;5040966;28;20806;-43
2023/05/14 07:36:26;;;;;;;11.67;10.87;;;;;;;21.69;78.71;101981.63;5032670;28;21087;-41
2023/05/14 07:38:57;;;;;;;13.00;11.87;;;;;;;21.67;80.28;101980.22;5039356;28;20466;-41
2023/05/14 07:41:33;;;;;;;10.63;9.93;;;;;;;21.60;80.35;101972.22;5026487;28;21415;-41
2023/05/14 07:44:08;;;;;;;11.47;10.57;;;;;;;21.68;79.28;101977.28;5053486;28;20441;-45
2023/05/14 07:46:37;;;;;;;11.17;10.20;;;;;;;21.65;81.69;101966.91;5055466;28;20443;-40
2023/05/14 07:49:05;;;;;;;12.43;11.40;;;;;;;22.08;81.04;101971.03;5046892;28;20475;-41
2023/05/14 07:51:34;;;;;;;11.07;10.37;;;;;;;21.86;80.30;101968.16;5039086;28;20428;-40
2023/05/14 07:54:03;;;;;;;11.57;10.67;;;;;;;21.86;81.44;101970.84;5050938;28;20858;-39
2023/05/14 07:56:33;;;;;;;12.33;10.70;;;;;;;21.74;81.21;101967.34;5043035;28;20809;-41
2023/05/14 07:59:01;;;;;;;11.67;10.87;;;;;;;21.97;80.90;101975.44;5045378;28;20439;-42
2023/05/14 08:01:30;;;;;;;10.93;10.03;;;;;;;21.63;81.39;101970.91;5046922;28;20479;-40
2023/05/14 08:03:57;;;;;;;11.10;10.10;;;;;;;21.57;84.95;101955.56;5039775;28;20445;-43
2023/05/14 08:06:26;;;;;;;10.53;9.77;;;;;;;21.71;78.26;101963.22;5053774;28;20427;-40
2023/05/14 08:08:54;;;;;;;9.33;8.70;;;;;;;21.67;82.23;101950.38;5040047;28;20543;-43
2023/05/14 08:11:22;;;;;;;9.80;9.00;;;;;;;21.92;85.38;101962.56;5049603;28;20469;-40
2023/05/14 08:13:53;;;;;;;9.60;9.00;;;;;;;21.14;92.27;101961.44;5041485;28;20460;-42
2023/05/14 08:16:22;;;;;;;10.07;9.37;;;;;;;21.29;97.89;101964.50;5039641;28;20518;-40
2023/05/14 08:18:50;;;;;;;10.10;9.40;;;;;;;21.39;91.65;101961.97;5046187;28;20431;-41
2023/05/14 08:21:28;;;;;;;10.30;9.40;;;;;;;21.28;93.44;101960.13;5050653;28;20458;-43
2023/05/14 08:23:57;;;;;;;10.63;9.93;;;;;;;21.00;95.60;101960.81;5054244;28;20457;-43
2023/05/14 08:26:41;;;;;;;11.13;10.23;;;;;;;21.21;96.95;101964.84;5037436;28;20487;-41
2023/05/14 08:29:10;;;;;;;9.60;8.70;;;;;;;20.91;94.12;101957.63;5030543;28;20435;-43
2023/05/14 08:31:42;;;;;;;11.13;9.07;;;;;;;21.26;92.92;101965.81;5035513;28;20519;-42
2023/05/14 08:34:13;;;;;;;9.47;8.73;;;;;;;21.48;92.06;101955.13;5045952;28;20435;-42
2023/05/14 08:36:42;;;;;;;9.53;8.83;;;;;;;21.32;87.03;101945.03;5046945;28;20465;-42
2023/05/14 08:39:10;;;;;;;7.67;7.17;;;;;;;21.41;82.23;101946.31;5041288;28;20449;-42
2023/05/14 08:41:38;;;;;;;6.83;6.43;;;;;;;21.77;77.31;101948.69;5048307;28;20435;-41
2023/05/14 08:44:08;;;;;;;7.57;7.10;;;;;;;22.10;74.93;101949.88;5044647;28;20859;-42
2023/05/14 08:46:38;;;;;;;6.90;6.40;;;;;;;21.99;68.09;101948.84;5042954;28;21100;-46
2023/05/14 08:49:16;;;;;;;6.57;6.17;;;;;;;21.99;68.93;101938.81;5040110;28;20452;-43
2023/05/14 08:51:45;;;;;;;5.93;5.57;;;;;;;21.98;69.01;101941.78;5029905;28;20452;-43
2023/05/14 08:54:17;;;;;;;6.87;6.47;;;;;;;22.18;66.01;101944.88;5044472;28;20431;-44
2023/05/14 08:56:45;;;;;;;7.23;6.03;;;;;;;22.55;65.80;101942.50;5045602;28;20455;-42
2023/05/14 08:59:15;;;;;;;6.10;5.80;;;;;;;22.74;59.46;101940.41;5043345;28;21515;-41
2023/05/14 09:01:47;;;;;;;6.97;6.27;;;;;;;23.08;61.09;101934.69;5027258;28;20459;-42
2023/05/14 09:04:19;;;;;;;7.17;6.67;;;;;;;23.33;57.92;101931.47;5047656;28;20431;-42
2023/05/14 09:06:50;;;;;;;13.37;9.43;;;;;;;23.45;54.01;101936.81;5045394;28;20928;-41
2023/05/14 09:09:21;;;;;;;5.77;5.23;;;;;;;23.99;56.06;101929.53;5035710;28;20510;-41
2023/05/14 09:11:49;;;;;;;6.10;5.60;;;;;;;24.32;52.03;101933.97;5043261;28;20473;-42
2023/05/14 09:14:17;;;;;;;6.20;5.53;;;;;;;24.30;49.93;101930.69;5040248;28;20925;-40
2023/05/14 09:16:48;;;;;;;7.20;5.60;;;;;;;24.66;50.51;101932.66;5038844;28;20505;-41
2023/05/14 09:19:17;;;;;;;6.50;6.10;;;;;;;23.61;54.31;101925.03;5034736;28;20435;-42
2023/05/14 09:21:47;;;;;;;5.90;5.33;;;;;;;24.18;52.26;101915.34;5029293;28;20455;-43
2023/05/14 09:24:20;;;;;;;5.30;5.10;;;;;;;24.19;46.21;101916.97;5040634;28;20481;-41
2023/05/14 09:26:50;;;;;;;5.77;5.33;;;;;;;24.25;49.45;101919.75;5031068;28;20454;-43
2023/05/14 09:29:18;;;;;;;5.80;5.40;;;;;;;24.56;47.91;101935.28;5032090;28;20809;-43
2023/05/14 09:31:49;;;;;;;5.87;5.37;;;;;;;24.60;49.46;101930.97;5039497;28;20458;-41
2023/05/14 09:34:23;;;;;;;5.63;5.23;;;;;;;25.07;46.35;101923.66;5030193;28;20453;-42
2023/05/14 09:36:56;;;;;;;6.80;5.50;;;;;;;25.04;44.08;101926.94;5032080;28;20460;-42
2023/05/14 09:39:23;;;;;;;6.27;5.47;;;;;;;25.01;43.50;101916.53;5034306;28;20429;-42
2023/05/14 09:41:52;;;;;;;7.27;6.67;;;;;;;25.33;45.58;101926.53;5037101;28;20530;-44
2023/05/14 09:44:20;;;;;;;9.00;5.73;;;;;;;25.46;45.76;101906.91;5039562;28;20475;-42
2023/05/14 09:46:51;;;;;;;5.70;5.30;;;;;;;25.56;43.55;101910.56;5043947;28;21222;-41
2023/05/14 09:49:19;;;;;;;6.10;5.53;;;;;;;25.78;42.27;101902.94;5042840;28;20825;-41
2023/05/14 09:51:48;;;;;;;5.83;5.43;;;;;;;25.77;42.51;101895.03;5041890;28;20458;-42
2023/05/14 09:54:17;;;;;;;5.03;4.63;;;;;;;26.00;40.98;101899.16;5036957;28;20993;-41
2023/05/14 09:56:45;;;;;;;5.33;4.83;;;;;;;25.85;37.16;101897.25;5040268;28;21262;-42
2023/05/14 09:59:13;;;;;;;5.87;5.57;;;;;;;26.01;40.47;101900.81;5032252;28;20440;-40
2023/05/14 10:01:43;;;;;;;6.50;5.30;;;;;;;26.19;38.93;101890.22;5041248;28;20546;-43
2023/05/14 10:04:14;;;;;;;5.60;5.20;;;;;;;26.43;39.49;101886.94;5030784;28;20878;-42
2023/05/14 10:06:47;;;;;;;6.23;5.63;;;;;;;26.54;38.43;101886.66;5040923;28;20997;-41
2023/05/14 10:09:20;;;;;;;7.43;5.57;;;;;;;26.60;37.92;101885.53;5040433;28;20431;-41
2023/05/14 10:11:53;;;;;;;5.37;4.83;;;;;;;26.53;39.04;101879.53;5014410;28;20471;-44
2023/05/14 10:14:29;;;;;;;5.43;4.93;;;;;;;26.44;38.82;101875.69;5038704;28;20446;-44
2023/05/14 10:17:00;;;;;;;5.10;4.60;;;;;;;26.71;38.82;101864.44;5037153;28;20437;-42
2023/05/14 10:19:34;;;;;;;5.40;5.10;;;;;;;26.72;35.53;101868.81;5038702;28;20442;-41
2023/05/14 10:22:06;;;;;;;5.53;5.03;;;;;;;26.81;36.06;101868.03;5031251;28;20464;-41
2023/05/14 10:24:37;;;;;;;5.33;4.60;;;;;;;26.51;33.55;101869.94;5029799;28;20841;-42
2023/05/14 10:27:05;;;;;;;6.00;5.57;;;;;;;26.37;36.06;101872.44;5026986;28;20482;-43
2023/05/14 10:29:34;;;;;;;6.30;5.90;;;;;;;26.17;35.07;101870.50;5031237;28;20990;-42
2023/05/14 10:32:05;;;;;;;6.40;5.13;;;;;;;25.93;37.99;101865.81;5039300;28;20463;-42
2023/05/14 10:34:37;;;;;;;6.00;5.50;;;;;;;25.53;33.32;101870.13;5038077;28;20447;-41
2023/05/14 10:37:07;;;;;;;5.37;4.77;;;;;;;25.71;35.66;101861.44;5035649;28;20457;-42
2023/05/14 10:39:43;;;;;;;5.03;4.70;;;;;;;25.75;36.14;101853.50;5031894;28;20550;-42
2023/05/14 10:42:11;;;;;;;5.33;4.93;;;;;;;25.76;34.73;101855.13;5033439;28;21026;-43
2023/05/14 10:44:46;;;;;;;9.40;6.73;;;;;;;25.41;35.74;101852.28;5043200;28;20482;-41
2023/05/14 10:47:16;;;;;;;7.27;5.40;;;;;;;25.67;36.72;101845.84;5035453;28;20488;-41
2023/05/14 10:49:47;;;;;;;6.03;5.63;;;;;;;25.57;34.58;101848.53;5034914;28;20446;-46
2023/05/14 10:52:18;;;;;;;6.03;4.93;;;;;;;25.64;34.73;101840.91;5032659;28;20550;-41
2023/05/14 10:54:54;;;;;;;5.43;5.00;;;;;;;26.05;35.07;101852.69;5041738;28;20428;-42
2023/05/14 10:57:23;;;;;;;5.80;5.40;;;;;;;25.88;35.00;101841.22;5030445;28;20451;-41
2023/05/14 10:59:53;;;;;;;5.40;4.90;;;;;;;26.11;33.53;101837.94;5037072;28;20435;-41
2023/05/14 11:02:23;;;;;;;6.37;5.93;;;;;;;25.96;33.77;101829.72;5037008;28;20470;-43
2023/05/14 11:04:58;;;;;;;5.00;4.63;;;;;;;25.50;34.86;101834.31;5017033;28;21353;-41
2023/05/14 11:07:31;;;;;;;6.50;5.60;;;;;;;25.58;34.04;101829.16;5031095;28;20451;-41
2023/05/14 11:10:02;;;;;;;5.37;5.07;;;;;;;25.05;33.90;101833.06;5033958;28;20464;-41
2023/05/14 11:12:30;;;;;;;6.33;5.73;;;;;;;25.25;35.35;101824.09;5034192;28;21260;-44
2023/05/14 11:15:00;;;;;;;5.33;4.93;;;;;;;25.15;34.81;101824.06;5037600;28;20437;-44
2023/05/14 11:17:30;;;;;;;5.40;5.10;;;;;;;25.00;36.45;101824.81;5034816;28;20455;-42